sensor_id;sensor_type;location;lat;lon;timestamp;P1;durP1;ratioP1;P2;durP2;ratioP2
81367;SDS011;70823;50.056;14.398;2023-07-08T00:01:34;4.03;;;2.80;;
81367;SDS011;70823;50.056;14.398;2023-07-08T00:04:00;3.80;;;2.70;;
81367;SDS011;70823;50.056;14.398;2023-07-08T00:06:25;4.63;;;3.10;;
81367;SDS011;70823;50.056;14.398;2023-07-08T00:08:51;4.15;;;3.05;;
81367;SDS011;70823;50.056;14.398;2023-07-08T00:11:17;4.90;;;2.87;;
81367;SDS011;70823;50.056;14.398;2023-07-08T00:13:43;4.03;;;2.78;;
81367;SDS011;70823;50.056;14.398;2023-07-08T00:16:12;4.50;;;2.92;;
81367;SDS011;70823;50.056;14.398;2023-07-08T00:18:39;4.32;;;2.90;;
81367;SDS011;70823;50.056;14.398;2023-07-08T00:21:07;3.45;;;2.65;;
81367;SDS011;70823;50.056;14.398;2023-07-08T00:23:39;4.22;;;2.85;;
81367;SDS011;70823;50.056;14.398;2023-07-08T00:26:09;3.93;;;2.87;;
81367;SDS011;70823;50.056;14.398;2023-07-08T00:28:36;4.82;;;2.75;;
81367;SDS011;70823;50.056;14.398;2023-07-08T00:31:01;5.07;;;2.90;;
81367;SDS011;70823;50.056;14.398;2023-07-08T00:33:26;4.43;;;3.10;;
81367;SDS011;70823;50.056;14.398;2023-07-08T00:35:52;4.73;;;2.80;;
81367;SDS011;70823;50.056;14.398;2023-07-08T00:38:19;5.77;;;3.03;;
81367;SDS011;70823;50.056;14.398;2023-07-08T00:40:52;5.90;;;3.35;;
81367;SDS011;70823;50.056;14.398;2023-07-08T00:43:30;4.80;;;3.20;;
81367;SDS011;70823;50.056;14.398;2023-07-08T00:51:52;4.95;;;3.38;;
81367;SDS011;70823;50.056;14.398;2023-07-08T00:54:18;4.97;;;3.25;;
81367;SDS011;70823;50.056;14.398;2023-07-08T00:59:33;5.53;;;3.22;;
81367;SDS011;70823;50.056;14.398;2023-07-08T01:02:02;7.28;;;3.47;;
81367;SDS011;70823;50.056;14.398;2023-07-08T01:04:34;5.00;;;3.30;;
81367;SDS011;70823;50.056;14.398;2023-07-08T01:07:04;4.60;;;3.05;;
81367;SDS011;70823;50.056;14.398;2023-07-08T01:09:33;4.55;;;3.00;;
81367;SDS011;70823;50.056;14.398;2023-07-08T01:12:01;4.70;;;3.33;;
81367;SDS011;70823;50.056;14.398;2023-07-08T01:14:29;4.32;;;3.28;;
81367;SDS011;70823;50.056;14.398;2023-07-08T01:16:57;5.47;;;3.42;;
81367;SDS011;70823;50.056;14.398;2023-07-08T01:19:23;5.57;;;3.20;;
81367;SDS011;70823;50.056;14.398;2023-07-08T01:24:23;4.40;;;3.10;;
81367;SDS011;70823;50.056;14.398;2023-07-08T01:26:49;6.90;;;4.00;;
81367;SDS011;70823;50.056;14.398;2023-07-08T01:29:14;4.83;;;3.17;;
81367;SDS011;70823;50.056;14.398;2023-07-08T01:31:39;5.50;;;3.13;;
81367;SDS011;70823;50.056;14.398;2023-07-08T01:34:05;5.45;;;3.00;;
81367;SDS011;70823;50.056;14.398;2023-07-08T01:36:35;5.75;;;3.33;;
81367;SDS011;70823;50.056;14.398;2023-07-08T01:39:03;4.63;;;3.30;;
81367;SDS011;70823;50.056;14.398;2023-07-08T01:41:29;4.30;;;3.40;;
81367;SDS011;70823;50.056;14.398;2023-07-08T01:43:54;6.70;;;3.22;;
81367;SDS011;70823;50.056;14.398;2023-07-08T01:46:21;5.10;;;3.13;;
81367;SDS011;70823;50.056;14.398;2023-07-08T01:48:52;5.13;;;3.22;;
81367;SDS011;70823;50.056;14.398;2023-07-08T01:51:19;4.95;;;2.97;;
81367;SDS011;70823;50.056;14.398;2023-07-08T01:53:45;5.00;;;3.53;;
81367;SDS011;70823;50.056;14.398;2023-07-08T01:56:11;4.28;;;3.22;;
81367;SDS011;70823;50.056;14.398;2023-07-08T01:58:38;4.28;;;3.10;;
81367;SDS011;70823;50.056;14.398;2023-07-08T02:01:03;4.45;;;3.28;;
81367;SDS011;70823;50.056;14.398;2023-07-08T02:03:29;5.72;;;3.85;;
81367;SDS011;70823;50.056;14.398;2023-07-08T02:05:55;4.88;;;3.40;;
81367;SDS011;70823;50.056;14.398;2023-07-08T02:08:20;4.88;;;3.67;;
81367;SDS011;70823;50.056;14.398;2023-07-08T02:10:50;4.90;;;2.97;;
81367;SDS011;70823;50.056;14.398;2023-07-08T02:13:16;5.97;;;3.85;;
81367;SDS011;70823;50.056;14.398;2023-07-08T02:15:42;5.35;;;3.33;;
81367;SDS011;70823;50.056;14.398;2023-07-08T02:18:07;4.67;;;3.27;;
81367;SDS011;70823;50.056;14.398;2023-07-08T02:20:32;4.60;;;3.50;;
81367;SDS011;70823;50.056;14.398;2023-07-08T02:22:57;5.03;;;3.50;;
81367;SDS011;70823;50.056;14.398;2023-07-08T02:25:23;5.17;;;3.13;;
81367;SDS011;70823;50.056;14.398;2023-07-08T02:27:48;5.70;;;3.47;;
81367;SDS011;70823;50.056;14.398;2023-07-08T02:30:13;5.30;;;3.30;;
81367;SDS011;70823;50.056;14.398;2023-07-08T02:32:39;6.78;;;3.45;;
81367;SDS011;70823;50.056;14.398;2023-07-08T02:35:05;6.28;;;3.35;;
81367;SDS011;70823;50.056;14.398;2023-07-08T02:37:31;4.53;;;3.25;;
81367;SDS011;70823;50.056;14.398;2023-07-08T02:39:57;4.88;;;3.13;;
81367;SDS011;70823;50.056;14.398;2023-07-08T02:42:22;4.38;;;3.20;;
81367;SDS011;70823;50.056;14.398;2023-07-08T02:44:48;5.03;;;3.27;;
81367;SDS011;70823;50.056;14.398;2023-07-08T02:47:13;5.22;;;3.10;;
81367;SDS011;70823;50.056;14.398;2023-07-08T02:49:38;4.20;;;3.13;;
81367;SDS011;70823;50.056;14.398;2023-07-08T02:52:04;6.87;;;4.03;;
81367;SDS011;70823;50.056;14.398;2023-07-08T02:54:29;5.30;;;3.67;;
81367;SDS011;70823;50.056;14.398;2023-07-08T02:56:54;6.23;;;3.50;;
81367;SDS011;70823;50.056;14.398;2023-07-08T02:59:19;5.30;;;3.67;;
81367;SDS011;70823;50.056;14.398;2023-07-08T03:01:45;4.90;;;3.33;;
81367;SDS011;70823;50.056;14.398;2023-07-08T03:04:12;5.65;;;3.17;;
81367;SDS011;70823;50.056;14.398;2023-07-08T03:06:44;4.90;;;3.63;;
81367;SDS011;70823;50.056;14.398;2023-07-08T03:09:10;5.57;;;3.22;;
81367;SDS011;70823;50.056;14.398;2023-07-08T03:11:37;6.45;;;3.35;;
81367;SDS011;70823;50.056;14.398;2023-07-08T03:14:03;5.78;;;3.60;;
81367;SDS011;70823;50.056;14.398;2023-07-08T03:16:28;4.97;;;3.40;;
81367;SDS011;70823;50.056;14.398;2023-07-08T03:18:53;6.27;;;3.00;;
81367;SDS011;70823;50.056;14.398;2023-07-08T03:21:19;5.55;;;3.80;;
81367;SDS011;70823;50.056;14.398;2023-07-08T03:23:44;5.95;;;3.45;;
81367;SDS011;70823;50.056;14.398;2023-07-08T03:26:14;4.95;;;3.28;;
81367;SDS011;70823;50.056;14.398;2023-07-08T03:28:41;6.85;;;3.65;;
81367;SDS011;70823;50.056;14.398;2023-07-08T03:31:07;5.05;;;3.40;;
81367;SDS011;70823;50.056;14.398;2023-07-08T03:33:34;4.45;;;3.33;;
81367;SDS011;70823;50.056;14.398;2023-07-08T03:36:00;5.07;;;3.35;;
81367;SDS011;70823;50.056;14.398;2023-07-08T03:38:25;6.22;;;3.50;;
81367;SDS011;70823;50.056;14.398;2023-07-08T03:40:51;5.07;;;3.57;;
81367;SDS011;70823;50.056;14.398;2023-07-08T03:43:16;4.78;;;3.15;;
81367;SDS011;70823;50.056;14.398;2023-07-08T03:45:41;5.80;;;3.67;;
81367;SDS011;70823;50.056;14.398;2023-07-08T03:48:08;6.47;;;3.38;;
81367;SDS011;70823;50.056;14.398;2023-07-08T03:50:37;4.53;;;3.40;;
81367;SDS011;70823;50.056;14.398;2023-07-08T03:53:03;4.72;;;3.33;;
81367;SDS011;70823;50.056;14.398;2023-07-08T03:55:29;5.30;;;4.25;;
81367;SDS011;70823;50.056;14.398;2023-07-08T03:57:54;5.20;;;3.50;;
81367;SDS011;70823;50.056;14.398;2023-07-08T04:00:20;5.85;;;3.33;;
81367;SDS011;70823;50.056;14.398;2023-07-08T04:02:45;4.93;;;3.42;;
81367;SDS011;70823;50.056;14.398;2023-07-08T04:05:15;5.65;;;3.60;;
81367;SDS011;70823;50.056;14.398;2023-07-08T04:07:41;4.57;;;3.42;;
81367;SDS011;70823;50.056;14.398;2023-07-08T04:10:07;6.03;;;3.78;;
81367;SDS011;70823;50.056;14.398;2023-07-08T04:12:33;6.47;;;3.80;;
81367;SDS011;70823;50.056;14.398;2023-07-08T04:14:58;5.07;;;3.50;;
81367;SDS011;70823;50.056;14.398;2023-07-08T04:17:24;5.75;;;3.67;;
81367;SDS011;70823;50.056;14.398;2023-07-08T04:19:49;5.45;;;3.65;;
81367;SDS011;70823;50.056;14.398;2023-07-08T04:22:15;5.95;;;4.22;;
81367;SDS011;70823;50.056;14.398;2023-07-08T04:24:40;5.32;;;3.60;;
81367;SDS011;70823;50.056;14.398;2023-07-08T04:27:08;5.72;;;4.00;;
81367;SDS011;70823;50.056;14.398;2023-07-08T04:29:37;5.57;;;4.05;;
81367;SDS011;70823;50.056;14.398;2023-07-08T04:32:03;5.95;;;4.25;;
81367;SDS011;70823;50.056;14.398;2023-07-08T04:34:28;7.15;;;4.65;;
81367;SDS011;70823;50.056;14.398;2023-07-08T04:36:54;6.18;;;4.25;;
81367;SDS011;70823;50.056;14.398;2023-07-08T04:39:19;5.32;;;4.00;;
81367;SDS011;70823;50.056;14.398;2023-07-08T04:41:45;6.35;;;4.50;;
81367;SDS011;70823;50.056;14.398;2023-07-08T04:44:10;5.43;;;4.47;;
81367;SDS011;70823;50.056;14.398;2023-07-08T04:49:25;5.78;;;4.50;;
81367;SDS011;70823;50.056;14.398;2023-07-08T04:51:58;6.15;;;4.55;;
81367;SDS011;70823;50.056;14.398;2023-07-08T04:54:24;6.72;;;4.75;;
81367;SDS011;70823;50.056;14.398;2023-07-08T04:56:50;5.90;;;4.45;;
81367;SDS011;70823;50.056;14.398;2023-07-08T04:59:17;6.03;;;4.55;;
81367;SDS011;70823;50.056;14.398;2023-07-08T05:01:43;5.43;;;3.90;;
81367;SDS011;70823;50.056;14.398;2023-07-08T05:04:11;6.75;;;3.70;;
81367;SDS011;70823;50.056;14.398;2023-07-08T05:06:38;5.78;;;3.80;;
81367;SDS011;70823;50.056;14.398;2023-07-08T05:09:03;5.47;;;4.63;;
81367;SDS011;70823;50.056;14.398;2023-07-08T05:11:29;7.30;;;4.47;;
81367;SDS011;70823;50.056;14.398;2023-07-08T05:13:55;6.47;;;4.63;;
81367;SDS011;70823;50.056;14.398;2023-07-08T05:16:20;6.95;;;4.95;;
81367;SDS011;70823;50.056;14.398;2023-07-08T05:18:46;6.75;;;4.78;;
81367;SDS011;70823;50.056;14.398;2023-07-08T05:21:11;6.03;;;4.35;;
81367;SDS011;70823;50.056;14.398;2023-07-08T05:23:39;6.07;;;4.43;;
81367;SDS011;70823;50.056;14.398;2023-07-08T05:26:05;6.15;;;4.05;;
81367;SDS011;70823;50.056;14.398;2023-07-08T05:28:32;6.38;;;4.80;;
81367;SDS011;70823;50.056;14.398;2023-07-08T05:30:57;8.70;;;4.93;;
81367;SDS011;70823;50.056;14.398;2023-07-08T05:33:27;6.18;;;4.80;;
81367;SDS011;70823;50.056;14.398;2023-07-08T05:35:53;5.13;;;4.18;;
81367;SDS011;70823;50.056;14.398;2023-07-08T05:38:19;5.82;;;4.75;;
81367;SDS011;70823;50.056;14.398;2023-07-08T05:40:53;5.55;;;4.82;;
81367;SDS011;70823;50.056;14.398;2023-07-08T05:43:20;6.53;;;5.22;;
81367;SDS011;70823;50.056;14.398;2023-07-08T05:45:46;7.18;;;4.53;;
81367;SDS011;70823;50.056;14.398;2023-07-08T05:48:11;6.43;;;5.38;;
81367;SDS011;70823;50.056;14.398;2023-07-08T05:50:37;5.90;;;4.55;;
81367;SDS011;70823;50.056;14.398;2023-07-08T05:53:04;6.55;;;4.93;;
81367;SDS011;70823;50.056;14.398;2023-07-08T05:55:29;6.70;;;4.33;;
81367;SDS011;70823;50.056;14.398;2023-07-08T05:57:56;6.40;;;4.80;;
81367;SDS011;70823;50.056;14.398;2023-07-08T06:00:21;5.82;;;4.55;;
81367;SDS011;70823;50.056;14.398;2023-07-08T06:02:52;5.77;;;4.57;;
81367;SDS011;70823;50.056;14.398;2023-07-08T06:05:18;5.55;;;4.40;;
81367;SDS011;70823;50.056;14.398;2023-07-08T06:07:43;10.40;;;4.20;;
81367;SDS011;70823;50.056;14.398;2023-07-08T06:10:09;9.18;;;4.78;;
81367;SDS011;70823;50.056;14.398;2023-07-08T06:12:34;5.07;;;4.00;;
81367;SDS011;70823;50.056;14.398;2023-07-08T06:15:00;5.33;;;4.00;;
81367;SDS011;70823;50.056;14.398;2023-07-08T06:17:25;6.45;;;4.38;;
81367;SDS011;70823;50.056;14.398;2023-07-08T06:19:51;6.87;;;4.50;;
81367;SDS011;70823;50.056;14.398;2023-07-08T06:22:16;6.50;;;4.32;;
81367;SDS011;70823;50.056;14.398;2023-07-08T06:24:41;5.77;;;4.20;;
81367;SDS011;70823;50.056;14.398;2023-07-08T06:27:07;6.23;;;4.20;;
81367;SDS011;70823;50.056;14.398;2023-07-08T06:29:33;6.55;;;3.80;;
81367;SDS011;70823;50.056;14.398;2023-07-08T06:31:59;4.88;;;4.07;;
81367;SDS011;70823;50.056;14.398;2023-07-08T06:34:24;5.25;;;3.95;;
81367;SDS011;70823;50.056;14.398;2023-07-08T06:36:49;6.37;;;4.17;;
81367;SDS011;70823;50.056;14.398;2023-07-08T06:39:15;4.38;;;3.90;;
81367;SDS011;70823;50.056;14.398;2023-07-08T06:41:41;5.40;;;4.53;;
81367;SDS011;70823;50.056;14.398;2023-07-08T06:44:07;5.75;;;3.45;;
81367;SDS011;70823;50.056;14.398;2023-07-08T06:46:32;8.90;;;3.97;;
81367;SDS011;70823;50.056;14.398;2023-07-08T06:48:58;4.55;;;3.70;;
81367;SDS011;70823;50.056;14.398;2023-07-08T06:51:23;7.00;;;5.27;;
81367;SDS011;70823;50.056;14.398;2023-07-08T06:53:49;6.00;;;4.68;;
81367;SDS011;70823;50.056;14.398;2023-07-08T06:56:14;6.27;;;4.10;;
81367;SDS011;70823;50.056;14.398;2023-07-08T06:58:39;6.20;;;4.10;;
81367;SDS011;70823;50.056;14.398;2023-07-08T07:01:05;5.25;;;3.85;;
81367;SDS011;70823;50.056;14.398;2023-07-08T07:03:30;5.85;;;4.07;;
81367;SDS011;70823;50.056;14.398;2023-07-08T07:05:56;4.90;;;3.60;;
81367;SDS011;70823;50.056;14.398;2023-07-08T07:08:24;5.20;;;3.45;;
81367;SDS011;70823;50.056;14.398;2023-07-08T07:10:49;5.13;;;3.63;;
81367;SDS011;70823;50.056;14.398;2023-07-08T07:13:15;6.50;;;3.77;;
81367;SDS011;70823;50.056;14.398;2023-07-08T07:15:40;4.78;;;3.63;;
81367;SDS011;70823;50.056;14.398;2023-07-08T07:18:06;6.03;;;3.95;;
81367;SDS011;70823;50.056;14.398;2023-07-08T07:20:32;7.80;;;4.03;;
81367;SDS011;70823;50.056;14.398;2023-07-08T07:22:58;7.07;;;4.10;;
81367;SDS011;70823;50.056;14.398;2023-07-08T07:25:23;5.40;;;3.73;;
81367;SDS011;70823;50.056;14.398;2023-07-08T07:27:49;6.47;;;3.83;;
81367;SDS011;70823;50.056;14.398;2023-07-08T07:30:14;4.68;;;3.58;;
81367;SDS011;70823;50.056;14.398;2023-07-08T07:32:43;5.03;;;3.55;;
81367;SDS011;70823;50.056;14.398;2023-07-08T07:35:09;6.30;;;4.03;;
81367;SDS011;70823;50.056;14.398;2023-07-08T07:37:38;6.10;;;3.63;;
81367;SDS011;70823;50.056;14.398;2023-07-08T07:40:04;5.68;;;3.60;;
81367;SDS011;70823;50.056;14.398;2023-07-08T07:42:31;4.95;;;3.58;;
81367;SDS011;70823;50.056;14.398;2023-07-08T07:44:56;6.13;;;3.70;;
81367;SDS011;70823;50.056;14.398;2023-07-08T07:47:22;5.28;;;3.45;;
81367;SDS011;70823;50.056;14.398;2023-07-08T07:49:48;6.18;;;3.67;;
81367;SDS011;70823;50.056;14.398;2023-07-08T07:52:14;5.85;;;3.90;;
81367;SDS011;70823;50.056;14.398;2023-07-08T07:54:41;5.05;;;3.35;;
81367;SDS011;70823;50.056;14.398;2023-07-08T07:57:06;5.18;;;3.78;;
81367;SDS011;70823;50.056;14.398;2023-07-08T07:59:32;5.70;;;4.00;;
81367;SDS011;70823;50.056;14.398;2023-07-08T08:01:57;5.57;;;3.25;;
81367;SDS011;70823;50.056;14.398;2023-07-08T08:04:23;4.70;;;3.60;;
81367;SDS011;70823;50.056;14.398;2023-07-08T08:06:48;5.27;;;3.53;;
81367;SDS011;70823;50.056;14.398;2023-07-08T08:09:13;6.90;;;3.30;;
81367;SDS011;70823;50.056;14.398;2023-07-08T08:11:39;7.15;;;3.45;;
81367;SDS011;70823;50.056;14.398;2023-07-08T08:14:04;5.20;;;4.20;;
81367;SDS011;70823;50.056;14.398;2023-07-08T08:16:29;5.00;;;3.63;;
81367;SDS011;70823;50.056;14.398;2023-07-08T08:18:55;5.03;;;3.33;;
81367;SDS011;70823;50.056;14.398;2023-07-08T08:21:20;5.65;;;3.42;;
81367;SDS011;70823;50.056;14.398;2023-07-08T08:23:46;5.22;;;3.72;;
81367;SDS011;70823;50.056;14.398;2023-07-08T08:26:12;5.80;;;3.97;;
81367;SDS011;70823;50.056;14.398;2023-07-08T08:28:37;6.50;;;4.27;;
81367;SDS011;70823;50.056;14.398;2023-07-08T08:31:02;4.97;;;3.60;;
81367;SDS011;70823;50.056;14.398;2023-07-08T08:33:28;4.60;;;3.63;;
81367;SDS011;70823;50.056;14.398;2023-07-08T08:35:53;7.10;;;3.63;;
81367;SDS011;70823;50.056;14.398;2023-07-08T08:38:18;6.77;;;3.73;;
81367;SDS011;70823;50.056;14.398;2023-07-08T08:40:44;5.68;;;3.50;;
81367;SDS011;70823;50.056;14.398;2023-07-08T08:43:10;5.15;;;4.03;;
81367;SDS011;70823;50.056;14.398;2023-07-08T08:45:59;5.13;;;3.50;;
81367;SDS011;70823;50.056;14.398;2023-07-08T08:48:30;8.50;;;4.43;;
81367;SDS011;70823;50.056;14.398;2023-07-08T08:50:59;8.32;;;4.70;;
81367;SDS011;70823;50.056;14.398;2023-07-08T08:53:29;6.07;;;3.97;;
81367;SDS011;70823;50.056;14.398;2023-07-08T08:55:56;8.63;;;3.53;;
81367;SDS011;70823;50.056;14.398;2023-07-08T08:58:34;7.22;;;3.83;;
81367;SDS011;70823;50.056;14.398;2023-07-08T09:01:23;6.45;;;3.92;;
81367;SDS011;70823;50.056;14.398;2023-07-08T09:03:54;6.10;;;3.72;;
81367;SDS011;70823;50.056;14.398;2023-07-08T09:06:23;5.90;;;3.10;;
81367;SDS011;70823;50.056;14.398;2023-07-08T09:08:49;5.70;;;3.75;;
81367;SDS011;70823;50.056;14.398;2023-07-08T09:11:22;6.32;;;3.45;;
81367;SDS011;70823;50.056;14.398;2023-07-08T09:14:00;5.30;;;3.42;;
81367;SDS011;70823;50.056;14.398;2023-07-08T09:16:26;6.15;;;3.50;;
81367;SDS011;70823;50.056;14.398;2023-07-08T09:19:13;5.95;;;3.83;;
81367;SDS011;70823;50.056;14.398;2023-07-08T09:24:45;6.10;;;3.45;;
81367;SDS011;70823;50.056;14.398;2023-07-08T09:27:14;6.40;;;3.33;;
81367;SDS011;70823;50.056;14.398;2023-07-08T09:29:40;6.30;;;3.50;;
81367;SDS011;70823;50.056;14.398;2023-07-08T09:32:15;5.00;;;3.37;;
81367;SDS011;70823;50.056;14.398;2023-07-08T09:34:45;5.22;;;3.60;;
81367;SDS011;70823;50.056;14.398;2023-07-08T09:37:25;5.95;;;3.80;;
81367;SDS011;70823;50.056;14.398;2023-07-08T09:39:52;4.75;;;3.30;;
81367;SDS011;70823;50.056;14.398;2023-07-08T09:42:18;8.13;;;3.40;;
81367;SDS011;70823;50.056;14.398;2023-07-08T09:44:47;5.55;;;3.75;;
81367;SDS011;70823;50.056;14.398;2023-07-08T09:47:20;4.55;;;3.05;;
81367;SDS011;70823;50.056;14.398;2023-07-08T09:49:49;4.95;;;3.75;;
81367;SDS011;70823;50.056;14.398;2023-07-08T09:52:17;4.57;;;3.35;;
81367;SDS011;70823;50.056;14.398;2023-07-08T09:54:42;5.72;;;3.15;;
81367;SDS011;70823;50.056;14.398;2023-07-08T09:59:53;3.42;;;2.63;;
81367;SDS011;70823;50.056;14.398;2023-07-08T10:04:48;6.67;;;3.73;;
81367;SDS011;70823;50.056;14.398;2023-07-08T10:07:17;6.28;;;3.15;;
81367;SDS011;70823;50.056;14.398;2023-07-08T10:09:42;5.50;;;3.60;;
81367;SDS011;70823;50.056;14.398;2023-07-08T10:12:08;4.13;;;3.13;;
81367;SDS011;70823;50.056;14.398;2023-07-08T10:14:48;5.95;;;3.47;;
81367;SDS011;70823;50.056;14.398;2023-07-08T10:17:17;4.22;;;3.20;;
81367;SDS011;70823;50.056;14.398;2023-07-08T10:19:44;4.63;;;3.45;;
81367;SDS011;70823;50.056;14.398;2023-07-08T10:28:11;9.35;;;3.60;;
81367;SDS011;70823;50.056;14.398;2023-07-08T10:41:54;4.18;;;3.33;;
81367;SDS011;70823;50.056;14.398;2023-07-08T10:44:27;4.30;;;3.17;;
81367;SDS011;70823;50.056;14.398;2023-07-08T10:47:31;5.45;;;3.38;;
81367;SDS011;70823;50.056;14.398;2023-07-08T10:55:28;4.55;;;3.20;;
81367;SDS011;70823;50.056;14.398;2023-07-08T10:58:08;6.68;;;3.92;;
81367;SDS011;70823;50.056;14.398;2023-07-08T11:00:45;4.07;;;3.10;;
81367;SDS011;70823;50.056;14.398;2023-07-08T11:03:26;4.05;;;3.17;;
81367;SDS011;70823;50.056;14.398;2023-07-08T11:05:58;4.13;;;3.25;;
81367;SDS011;70823;50.056;14.398;2023-07-08T11:08:27;4.40;;;3.13;;
81367;SDS011;70823;50.056;14.398;2023-07-08T11:11:00;5.45;;;3.17;;
81367;SDS011;70823;50.056;14.398;2023-07-08T11:13:29;5.03;;;3.58;;
81367;SDS011;70823;50.056;14.398;2023-07-08T11:16:01;4.65;;;3.28;;
81367;SDS011;70823;50.056;14.398;2023-07-08T11:18:31;5.72;;;3.63;;
81367;SDS011;70823;50.056;14.398;2023-07-08T11:21:07;5.25;;;3.00;;
81367;SDS011;70823;50.056;14.398;2023-07-08T11:26:41;3.97;;;3.30;;
81367;SDS011;70823;50.056;14.398;2023-07-08T11:29:13;4.63;;;3.13;;
81367;SDS011;70823;50.056;14.398;2023-07-08T11:31:42;4.97;;;3.08;;
81367;SDS011;70823;50.056;14.398;2023-07-08T11:34:08;5.95;;;2.97;;
81367;SDS011;70823;50.056;14.398;2023-07-08T11:36:35;4.53;;;3.08;;
81367;SDS011;70823;50.056;14.398;2023-07-08T11:39:02;4.35;;;3.00;;
81367;SDS011;70823;50.056;14.398;2023-07-08T11:41:30;4.53;;;3.13;;
81367;SDS011;70823;50.056;14.398;2023-07-08T11:43:57;3.83;;;3.25;;
81367;SDS011;70823;50.056;14.398;2023-07-08T11:46:24;4.10;;;3.17;;
81367;SDS011;70823;50.056;14.398;2023-07-08T11:49:05;4.72;;;2.88;;
81367;SDS011;70823;50.056;14.398;2023-07-08T11:51:37;4.85;;;3.38;;
81367;SDS011;70823;50.056;14.398;2023-07-08T11:56:28;5.60;;;3.30;;
81367;SDS011;70823;50.056;14.398;2023-07-08T11:59:14;5.13;;;3.53;;
81367;SDS011;70823;50.056;14.398;2023-07-08T12:01:46;4.47;;;3.45;;
81367;SDS011;70823;50.056;14.398;2023-07-08T12:04:27;5.75;;;3.25;;
81367;SDS011;70823;50.056;14.398;2023-07-08T12:07:17;4.88;;;3.40;;
81367;SDS011;70823;50.056;14.398;2023-07-08T12:09:47;6.68;;;3.70;;
81367;SDS011;70823;50.056;14.398;2023-07-08T12:12:16;4.57;;;2.80;;
81367;SDS011;70823;50.056;14.398;2023-07-08T12:14:45;4.95;;;2.92;;
81367;SDS011;70823;50.056;14.398;2023-07-08T12:17:11;4.60;;;3.75;;
81367;SDS011;70823;50.056;14.398;2023-07-08T12:19:37;4.40;;;3.15;;
81367;SDS011;70823;50.056;14.398;2023-07-08T12:22:07;6.13;;;2.85;;
81367;SDS011;70823;50.056;14.398;2023-07-08T12:24:33;4.70;;;2.85;;
81367;SDS011;70823;50.056;14.398;2023-07-08T12:26:59;6.30;;;3.67;;
81367;SDS011;70823;50.056;14.398;2023-07-08T12:29:24;4.60;;;3.00;;
81367;SDS011;70823;50.056;14.398;2023-07-08T12:31:50;4.43;;;3.45;;
81367;SDS011;70823;50.056;14.398;2023-07-08T12:34:16;4.38;;;3.15;;
81367;SDS011;70823;50.056;14.398;2023-07-08T12:36:42;3.63;;;2.80;;
81367;SDS011;70823;50.056;14.398;2023-07-08T12:39:10;4.20;;;2.63;;
81367;SDS011;70823;50.056;14.398;2023-07-08T12:41:39;4.93;;;3.00;;
81367;SDS011;70823;50.056;14.398;2023-07-08T12:44:08;3.73;;;2.80;;
81367;SDS011;70823;50.056;14.398;2023-07-08T12:46:40;4.32;;;3.35;;
81367;SDS011;70823;50.056;14.398;2023-07-08T12:49:07;4.85;;;3.03;;
81367;SDS011;70823;50.056;14.398;2023-07-08T12:51:33;4.10;;;2.90;;
81367;SDS011;70823;50.056;14.398;2023-07-08T12:53:58;4.20;;;3.20;;
81367;SDS011;70823;50.056;14.398;2023-07-08T12:56:24;4.18;;;2.95;;
81367;SDS011;70823;50.056;14.398;2023-07-08T12:58:50;4.57;;;3.17;;
81367;SDS011;70823;50.056;14.398;2023-07-08T13:01:17;5.32;;;3.53;;
81367;SDS011;70823;50.056;14.398;2023-07-08T13:03:45;5.00;;;3.20;;
81367;SDS011;70823;50.056;14.398;2023-07-08T13:06:13;4.10;;;3.30;;
81367;SDS011;70823;50.056;14.398;2023-07-08T13:08:41;7.68;;;3.25;;
81367;SDS011;70823;50.056;14.398;2023-07-08T13:11:07;3.80;;;2.78;;
81367;SDS011;70823;50.056;14.398;2023-07-08T13:13:34;6.23;;;3.30;;
81367;SDS011;70823;50.056;14.398;2023-07-08T13:16:01;3.78;;;2.85;;
81367;SDS011;70823;50.056;14.398;2023-07-08T13:18:33;5.25;;;3.03;;
81367;SDS011;70823;50.056;14.398;2023-07-08T13:21:00;4.30;;;3.08;;
81367;SDS011;70823;50.056;14.398;2023-07-08T13:23:27;4.95;;;3.75;;
81367;SDS011;70823;50.056;14.398;2023-07-08T13:25:53;5.35;;;3.13;;
81367;SDS011;70823;50.056;14.398;2023-07-08T13:28:20;4.28;;;3.25;;
81367;SDS011;70823;50.056;14.398;2023-07-08T13:30:55;5.00;;;3.15;;
81367;SDS011;70823;50.056;14.398;2023-07-08T13:33:32;4.35;;;3.03;;
81367;SDS011;70823;50.056;14.398;2023-07-08T13:36:00;6.15;;;3.50;;
81367;SDS011;70823;50.056;14.398;2023-07-08T13:38:30;4.25;;;3.53;;
81367;SDS011;70823;50.056;14.398;2023-07-08T13:41:00;5.85;;;3.42;;
81367;SDS011;70823;50.056;14.398;2023-07-08T13:43:28;4.70;;;3.53;;
81367;SDS011;70823;50.056;14.398;2023-07-08T13:50:50;3.83;;;2.90;;
81367;SDS011;70823;50.056;14.398;2023-07-08T13:53:19;4.57;;;3.28;;
81367;SDS011;70823;50.056;14.398;2023-07-08T13:55:47;4.63;;;3.08;;
81367;SDS011;70823;50.056;14.398;2023-07-08T13:58:16;4.57;;;3.43;;
81367;SDS011;70823;50.056;14.398;2023-07-08T14:00:42;3.85;;;2.95;;
81367;SDS011;70823;50.056;14.398;2023-07-08T14:03:11;6.25;;;3.20;;
81367;SDS011;70823;50.056;14.398;2023-07-08T14:05:45;4.50;;;3.17;;
81367;SDS011;70823;50.056;14.398;2023-07-08T14:08:14;4.37;;;3.17;;
81367;SDS011;70823;50.056;14.398;2023-07-08T14:10:40;4.00;;;2.92;;
81367;SDS011;70823;50.056;14.398;2023-07-08T14:13:06;4.05;;;2.88;;
81367;SDS011;70823;50.056;14.398;2023-07-08T14:15:31;4.32;;;2.75;;
81367;SDS011;70823;50.056;14.398;2023-07-08T14:17:57;4.38;;;3.55;;
81367;SDS011;70823;50.056;14.398;2023-07-08T14:20:24;4.13;;;3.17;;
81367;SDS011;70823;50.056;14.398;2023-07-08T14:22:52;6.35;;;3.40;;
81367;SDS011;70823;50.056;14.398;2023-07-08T14:25:18;4.60;;;3.40;;
81367;SDS011;70823;50.056;14.398;2023-07-08T14:30:11;4.87;;;3.33;;
81367;SDS011;70823;50.056;14.398;2023-07-08T14:32:36;3.85;;;3.15;;
81367;SDS011;70823;50.056;14.398;2023-07-08T14:35:24;4.10;;;3.08;;
81367;SDS011;70823;50.056;14.398;2023-07-08T14:37:49;4.13;;;3.35;;
81367;SDS011;70823;50.056;14.398;2023-07-08T14:40:23;5.85;;;3.28;;
81367;SDS011;70823;50.056;14.398;2023-07-08T14:42:51;4.43;;;3.00;;
81367;SDS011;70823;50.056;14.398;2023-07-08T14:45:21;3.95;;;2.97;;
81367;SDS011;70823;50.056;14.398;2023-07-08T14:47:46;3.17;;;2.83;;
81367;SDS011;70823;50.056;14.398;2023-07-08T14:50:14;3.50;;;3.20;;
81367;SDS011;70823;50.056;14.398;2023-07-08T14:52:40;5.03;;;3.20;;
81367;SDS011;70823;50.056;14.398;2023-07-08T14:55:05;4.72;;;3.00;;
81367;SDS011;70823;50.056;14.398;2023-07-08T14:57:32;4.35;;;3.03;;
81367;SDS011;70823;50.056;14.398;2023-07-08T15:00:05;5.10;;;3.95;;
81367;SDS011;70823;50.056;14.398;2023-07-08T15:02:31;5.43;;;3.33;;
81367;SDS011;70823;50.056;14.398;2023-07-08T15:04:57;3.92;;;2.72;;
81367;SDS011;70823;50.056;14.398;2023-07-08T15:07:22;4.68;;;3.30;;
81367;SDS011;70823;50.056;14.398;2023-07-08T15:09:48;4.10;;;2.90;;
81367;SDS011;70823;50.056;14.398;2023-07-08T15:12:13;4.13;;;3.30;;
81367;SDS011;70823;50.056;14.398;2023-07-08T15:14:38;4.88;;;3.05;;
81367;SDS011;70823;50.056;14.398;2023-07-08T15:17:09;5.63;;;3.25;;
81367;SDS011;70823;50.056;14.398;2023-07-08T15:19:36;7.95;;;3.55;;
81367;SDS011;70823;50.056;14.398;2023-07-08T15:22:01;3.67;;;3.00;;
81367;SDS011;70823;50.056;14.398;2023-07-08T15:24:26;5.28;;;3.50;;
81367;SDS011;70823;50.056;14.398;2023-07-08T15:26:52;3.77;;;3.00;;
81367;SDS011;70823;50.056;14.398;2023-07-08T15:29:18;4.30;;;3.28;;
81367;SDS011;70823;50.056;14.398;2023-07-08T15:31:44;4.93;;;3.15;;
81367;SDS011;70823;50.056;14.398;2023-07-08T15:34:14;5.30;;;3.45;;